createdAt,value
2022-10-10T00:03:07.941Z,19.80
2022-10-10T00:08:11.568Z,19.80
2022-10-10T00:13:16.219Z,19.80
2022-10-10T00:18:19.477Z,19.70
2022-10-10T00:23:23.124Z,19.70
2022-10-10T00:28:28.153Z,19.70
2022-10-10T00:33:31.669Z,19.70
2022-10-10T00:38:35.179Z,19.60
2022-10-10T00:43:40.580Z,19.60
2022-10-10T00:48:46.484Z,19.50
2022-10-10T00:53:52.530Z,19.50
2022-10-10T00:59:01.274Z,19.50
2022-10-10T01:04:04.960Z,19.50
2022-10-10T01:09:08.455Z,19.50
2022-10-10T01:14:25.151Z,19.40
2022-10-10T01:19:49.936Z,19.40
2022-10-10T01:24:59.144Z,19.40
2022-10-10T01:30:09.210Z,19.40
2022-10-10T01:35:26.887Z,19.40
2022-10-10T01:40:34.935Z,19.30
2022-10-10T01:45:44.434Z,19.30
2022-10-10T01:51:09.546Z,19.20
2022-10-10T01:56:25.943Z,19.30
2022-10-10T02:01:37.085Z,19.20
2022-10-10T02:06:45.539Z,19.20
2022-10-10T02:11:50.745Z,19.10
2022-10-10T02:16:56.998Z,19.10
2022-10-10T02:22:01.761Z,19.10
2022-10-10T02:27:09.731Z,19.00
2022-10-10T02:32:21.004Z,19.00
2022-10-10T02:37:25.034Z,18.90
2022-10-10T02:42:29.857Z,18.90
2022-10-10T02:47:34.418Z,18.80
2022-10-10T02:52:37.651Z,18.80
2022-10-10T02:57:40.944Z,18.80
2022-10-10T03:02:46.185Z,18.70
2022-10-10T03:07:49.455Z,18.70
2022-10-10T03:12:52.912Z,18.70
2022-10-10T03:17:57.778Z,18.70
2022-10-10T03:23:00.939Z,18.70
2022-10-10T03:28:04.259Z,18.60
2022-10-10T03:33:09.852Z,18.60
2022-10-10T03:38:15.088Z,18.60
2022-10-10T03:43:18.483Z,18.60
2022-10-10T03:48:23.033Z,18.60
2022-10-10T03:53:26.292Z,18.60
2022-10-10T03:58:29.562Z,18.60
2022-10-10T04:03:34.579Z,18.60
2022-10-10T04:08:37.854Z,18.60
2022-10-10T04:13:41.249Z,18.60
2022-10-10T04:18:45.813Z,18.60
2022-10-10T04:23:49.063Z,18.60
2022-10-10T04:28:52.301Z,18.60
2022-10-10T04:33:56.939Z,18.60
2022-10-10T04:39:00.562Z,18.60
2022-10-10T04:44:03.805Z,18.60
2022-10-10T04:49:08.518Z,18.60
2022-10-10T04:54:13.334Z,18.60
2022-10-10T04:59:16.586Z,18.60
2022-10-10T05:04:21.231Z,18.60
2022-10-10T05:09:24.762Z,18.60
2022-10-10T05:14:28.393Z,18.70
2022-10-10T05:19:32.992Z,18.70
2022-10-10T05:24:36.180Z,18.70
2022-10-10T05:29:39.607Z,18.70
2022-10-10T05:34:44.250Z,18.70
2022-10-10T05:39:53.701Z,18.80
2022-10-10T05:44:57.850Z,18.80
2022-10-10T05:50:02.600Z,18.80
2022-10-10T05:55:06.813Z,18.80
2022-10-10T06:00:11.115Z,18.80
2022-10-10T06:05:15.844Z,18.80
2022-10-10T06:10:19.177Z,18.80
2022-10-10T06:15:22.418Z,18.80
2022-10-10T06:20:27.065Z,19.10
2022-10-10T06:25:40.186Z,19.60
2022-10-10T06:30:45.185Z,20.20
2022-10-10T06:35:51.009Z,20.70
2022-10-10T06:40:57.431Z,20.90
2022-10-10T06:46:04.988Z,21.00
2022-10-10T06:51:12.337Z,21.00
2022-10-10T06:56:27.452Z,21.00
2022-10-10T07:01:31.199Z,20.90
2022-10-10T07:06:35.947Z,20.90
2022-10-10T07:11:39.612Z,20.80
2022-10-10T07:16:42.900Z,20.70
2022-10-10T07:21:47.572Z,20.60
2022-10-10T07:27:02.351Z,20.50
2022-10-10T07:32:08.542Z,20.50
2022-10-10T07:37:13.191Z,20.40
2022-10-10T07:42:16.574Z,20.40
2022-10-10T07:47:19.899Z,20.40
2022-10-10T07:52:24.499Z,20.40
2022-10-10T07:57:27.742Z,20.40
2022-10-10T08:02:30.955Z,20.40
2022-10-10T08:07:35.943Z,20.40
2022-10-10T08:12:39.232Z,20.40
2022-10-10T08:17:42.450Z,20.50
2022-10-10T08:22:47.094Z,20.50
2022-10-10T08:27:50.332Z,20.60
2022-10-10T08:32:53.807Z,20.70
2022-10-10T08:37:58.643Z,20.80
2022-10-10T08:43:08.765Z,20.80
2022-10-10T08:48:16.252Z,20.90
2022-10-10T08:53:27.961Z,21.10
2022-10-10T08:58:34.381Z,21.20
2022-10-10T09:03:42.587Z,21.40
2022-10-10T09:08:54.152Z,21.50
2022-10-10T09:14:09.770Z,21.70
2022-10-10T09:19:24.640Z,21.90
2022-10-10T09:24:34.617Z,22.20
2022-10-10T09:29:43.719Z,22.40
2022-10-10T09:34:49.700Z,22.60
2022-10-10T09:39:58.625Z,22.80
2022-10-10T09:45:02.245Z,23.10
2022-10-10T09:50:06.221Z,23.40
2022-10-10T09:55:27.101Z,23.60
2022-10-10T10:00:36.842Z,23.90
2022-10-10T10:05:41.512Z,24.20
2022-10-10T10:10:46.235Z,24.50
2022-10-10T10:15:52.851Z,24.80
2022-10-10T10:21:14.019Z,25.10
2022-10-10T10:26:21.159Z,25.50
2022-10-10T10:31:44.798Z,25.90
2022-10-10T10:36:55.666Z,26.30
2022-10-10T10:42:07.334Z,26.70
2022-10-10T10:47:28.840Z,27.00
2022-10-10T10:52:46.255Z,27.30
2022-10-10T10:58:57.888Z,27.60
2022-10-10T11:05:18.550Z,27.90
2022-10-10T11:09:31.087Z,28.00
2022-10-10T11:14:51.033Z,28.10
2022-10-10T11:20:00.398Z,28.10
2022-10-10T11:25:09.545Z,28.10
2022-10-10T11:30:18.322Z,28.00
2022-10-10T11:35:37.908Z,27.90
2022-10-10T11:40:51.404Z,27.80
2022-10-10T11:46:05.635Z,27.70
2022-10-10T11:51:18.993Z,27.60
2022-10-10T11:56:29.942Z,27.50
2022-10-10T12:01:38.983Z,27.30
2022-10-10T12:06:46.648Z,27.20
2022-10-10T12:11:54.974Z,27.10
2022-10-10T12:17:00.811Z,26.90
2022-10-10T12:22:06.183Z,26.80
2022-10-10T12:27:42.491Z,26.60
2022-10-10T12:32:47.931Z,26.50
2022-10-10T12:38:19.807Z,26.40
2022-10-10T12:43:25.900Z,26.20
2022-10-10T12:48:30.751Z,26.10
2022-10-10T12:53:35.636Z,26.00
2022-10-10T12:58:41.383Z,25.90
2022-10-10T13:03:50.072Z,25.80
2022-10-10T13:08:55.141Z,25.80
2022-10-10T13:13:58.813Z,25.70
2022-10-10T13:19:03.453Z,25.60
2022-10-10T13:24:08.253Z,25.60
2022-10-10T13:29:22.418Z,25.60
2022-10-10T13:34:30.427Z,25.60
2022-10-10T13:39:37.567Z,25.60
2022-10-10T13:44:50.878Z,25.60
2022-10-10T13:49:58.685Z,25.50
2022-10-10T13:55:16.546Z,25.50
2022-10-10T14:00:30.595Z,25.40
2022-10-10T14:05:35.249Z,25.40
2022-10-10T14:10:38.458Z,25.40
2022-10-10T14:15:47.237Z,25.40
2022-10-10T14:20:55.540Z,25.40
2022-10-10T14:25:59.305Z,25.40
2022-10-10T14:31:03.143Z,25.30
2022-10-10T14:36:08.537Z,25.30
2022-10-10T14:41:13.796Z,25.30
2022-10-10T14:46:20.185Z,25.30
2022-10-10T14:51:34.274Z,25.30
2022-10-10T14:57:09.022Z,25.30
2022-10-10T15:02:02.069Z,25.20
2022-10-10T15:07:15.154Z,25.20
2022-10-10T15:12:18.778Z,25.10
2022-10-10T15:17:22.045Z,25.10
2022-10-10T15:22:27.607Z,25.10
2022-10-10T15:27:32.999Z,25.10
2022-10-10T15:32:39.486Z,25.00
2022-10-10T15:37:44.933Z,24.90
2022-10-10T15:42:50.979Z,24.90
2022-10-10T15:47:54.262Z,24.90
2022-10-10T15:53:05.157Z,24.80
2022-10-10T15:58:08.428Z,24.80
2022-10-10T16:03:11.765Z,24.70
2022-10-10T16:08:16.551Z,24.70
2022-10-10T16:13:20.214Z,24.60
2022-10-10T16:18:23.440Z,24.60
2022-10-10T16:23:28.567Z,24.50
2022-10-10T16:28:32.412Z,24.40
2022-10-10T16:33:36.824Z,24.40
2022-10-10T16:38:42.627Z,24.30
2022-10-10T16:43:48.419Z,24.20
2022-10-10T16:48:52.109Z,24.20
2022-10-10T16:53:57.664Z,24.10
2022-10-10T16:59:01.295Z,24.00
2022-10-10T17:04:05.306Z,24.00
2022-10-10T17:09:11.639Z,23.90
2022-10-10T17:14:16.322Z,23.80
2022-10-10T17:19:19.623Z,23.80
2022-10-10T17:24:25.304Z,23.70
2022-10-10T17:29:28.671Z,23.60
2022-10-10T17:34:32.170Z,23.60
2022-10-10T17:39:36.986Z,23.50
2022-10-10T17:44:46.493Z,23.40
2022-10-10T17:49:54.787Z,23.40
2022-10-10T17:54:59.547Z,23.30
2022-10-10T18:00:03.053Z,23.30
2022-10-10T18:05:08.595Z,23.20
2022-10-10T18:10:13.608Z,23.10
2022-10-10T18:15:17.040Z,23.10
2022-10-10T18:20:21.168Z,23.00
2022-10-10T18:25:26.334Z,23.00
2022-10-10T18:30:30.148Z,23.00
2022-10-10T18:35:34.070Z,22.90
2022-10-10T18:40:39.566Z,22.80
2022-10-10T18:45:42.930Z,22.80
2022-10-10T18:50:46.223Z,22.70
2022-10-10T18:56:00.383Z,22.70
2022-10-10T19:01:06.428Z,22.70
2022-10-10T19:06:13.151Z,22.60
2022-10-10T19:11:23.181Z,22.60
2022-10-10T19:16:27.174Z,22.50
2022-10-10T19:21:33.797Z,22.50
2022-10-10T19:26:38.984Z,22.50
2022-10-10T19:31:42.905Z,22.40
2022-10-10T19:36:46.471Z,22.40
2022-10-10T19:41:53.387Z,22.40
2022-10-10T19:46:56.865Z,22.30
2022-10-10T19:52:00.197Z,22.30
2022-10-10T19:57:04.964Z,22.30
2022-10-10T20:02:08.514Z,22.20
2022-10-10T20:07:11.834Z,22.20
2022-10-10T20:12:16.567Z,22.10
2022-10-10T20:17:19.877Z,22.10
2022-10-10T20:22:23.354Z,22.00
2022-10-10T20:27:31.253Z,22.00
2022-10-10T20:32:34.780Z,22.00
2022-10-10T20:37:38.128Z,22.00
2022-10-10T20:42:42.979Z,22.00
2022-10-10T20:47:46.275Z,21.90
2022-10-10T20:52:49.528Z,21.90
2022-10-10T20:57:54.176Z,21.90
2022-10-10T21:02:58.005Z,21.80
2022-10-10T21:08:01.911Z,21.80
2022-10-10T21:13:06.544Z,21.80
2022-10-10T21:18:10.415Z,21.80
2022-10-10T21:23:13.670Z,21.70
2022-10-10T21:28:18.392Z,21.70
2022-10-10T21:33:21.738Z,21.70
2022-10-10T21:38:26.009Z,21.70
2022-10-10T21:43:30.697Z,21.70
2022-10-10T21:48:34.055Z,21.70
2022-10-10T21:53:37.695Z,21.60
2022-10-10T21:58:43.900Z,21.60
2022-10-10T22:03:49.516Z,21.60
2022-10-10T22:08:54.997Z,21.60
2022-10-10T22:14:02.367Z,21.60
2022-10-10T22:19:06.555Z,21.60
2022-10-10T22:24:10.024Z,21.50
2022-10-10T22:29:14.750Z,21.60
2022-10-10T22:34:18.225Z,21.60
2022-10-10T22:39:21.942Z,21.50
2022-10-10T22:44:26.750Z,21.50
2022-10-10T22:49:30.111Z,21.50
2022-10-10T22:54:33.700Z,21.50
2022-10-10T22:59:38.752Z,21.40
2022-10-10T23:04:42.108Z,21.40
2022-10-10T23:09:46.106Z,21.40
2022-10-10T23:14:50.898Z,21.40
2022-10-10T23:19:54.187Z,21.40
2022-10-10T23:24:57.404Z,21.40
2022-10-10T23:30:01.980Z,21.40
2022-10-10T23:35:05.939Z,21.40
2022-10-10T23:40:09.989Z,21.40
2022-10-10T23:45:14.730Z,21.30
2022-10-10T23:50:18.407Z,21.40
2022-10-10T23:55:21.988Z,21.30
